sensor_id;sensor_type;location;lat;lon;timestamp;P1;durP1;ratioP1;P2;durP2;ratioP2
24084;SDS011;12268;52.110;5.548;2023-05-10T05:45:48;141.07;;;35.85;;
24084;SDS011;12268;52.110;5.548;2023-05-10T05:48:13;137.55;;;35.17;;
24084;SDS011;12268;52.110;5.548;2023-05-10T05:50:39;154.90;;;35.50;;
24084;SDS011;12268;52.110;5.548;2023-05-10T05:53:05;147.90;;;35.08;;
24084;SDS011;12268;52.110;5.548;2023-05-10T05:55:30;171.48;;;36.38;;
24084;SDS011;12268;52.110;5.548;2023-05-10T05:57:56;169.88;;;35.10;;
24084;SDS011;12268;52.110;5.548;2023-05-10T06:00:22;180.35;;;36.28;;
24084;SDS011;12268;52.110;5.548;2023-05-10T06:02:48;164.07;;;35.88;;
24084;SDS011;12268;52.110;5.548;2023-05-10T06:05:13;170.27;;;36.63;;
24084;SDS011;12268;52.110;5.548;2023-05-10T06:07:39;163.68;;;34.60;;
24084;SDS011;12268;52.110;5.548;2023-05-10T06:10:07;160.70;;;35.78;;
24084;SDS011;12268;52.110;5.548;2023-05-10T06:12:33;146.95;;;35.28;;
24084;SDS011;12268;52.110;5.548;2023-05-10T06:14:59;149.25;;;36.22;;
24084;SDS011;12268;52.110;5.548;2023-05-10T06:17:24;154.10;;;40.42;;
24084;SDS011;12268;52.110;5.548;2023-05-10T06:19:50;149.35;;;37.30;;
24084;SDS011;12268;52.110;5.548;2023-05-10T06:22:15;140.25;;;37.63;;
24084;SDS011;12268;52.110;5.548;2023-05-10T06:24:41;163.13;;;38.75;;
24084;SDS011;12268;52.110;5.548;2023-05-10T06:27:06;139.57;;;37.63;;
24084;SDS011;12268;52.110;5.548;2023-05-10T06:29:32;143.45;;;38.92;;
24084;SDS011;12268;52.110;5.548;2023-05-10T06:31:57;123.25;;;36.75;;
24084;SDS011;12268;52.110;5.548;2023-05-10T06:34:23;130.05;;;34.92;;
24084;SDS011;12268;52.110;5.548;2023-05-10T06:36:49;124.45;;;36.22;;
24084;SDS011;12268;52.110;5.548;2023-05-10T06:39:15;118.70;;;35.03;;
24084;SDS011;12268;52.110;5.548;2023-05-10T06:41:40;112.28;;;34.05;;
24084;SDS011;12268;52.110;5.548;2023-05-10T06:44:06;113.13;;;33.97;;
24084;SDS011;12268;52.110;5.548;2023-05-10T06:46:32;112.13;;;33.30;;
24084;SDS011;12268;52.110;5.548;2023-05-10T06:48:57;95.72;;;33.15;;
24084;SDS011;12268;52.110;5.548;2023-05-10T06:51:23;108.28;;;33.40;;
24084;SDS011;12268;52.110;5.548;2023-05-10T06:53:48;108.60;;;34.25;;
24084;SDS011;12268;52.110;5.548;2023-05-10T06:56:14;100.63;;;32.42;;
24084;SDS011;12268;52.110;5.548;2023-05-10T06:58:39;99.30;;;31.83;;
24084;SDS011;12268;52.110;5.548;2023-05-10T07:01:05;97.15;;;32.08;;
24084;SDS011;12268;52.110;5.548;2023-05-10T07:03:31;90.82;;;30.52;;
24084;SDS011;12268;52.110;5.548;2023-05-10T07:06:03;74.50;;;28.60;;
24084;SDS011;12268;52.110;5.548;2023-05-10T07:08:32;67.10;;;24.25;;
24084;SDS011;12268;52.110;5.548;2023-05-10T07:11:01;66.75;;;24.67;;
24084;SDS011;12268;52.110;5.548;2023-05-10T07:13:28;58.65;;;22.55;;
24084;SDS011;12268;52.110;5.548;2023-05-10T07:15:57;59.83;;;23.10;;
24084;SDS011;12268;52.110;5.548;2023-05-10T07:18:23;53.70;;;22.67;;
24084;SDS011;12268;52.110;5.548;2023-05-10T07:20:49;60.95;;;22.30;;
24084;SDS011;12268;52.110;5.548;2023-05-10T07:23:15;58.38;;;21.88;;
24084;SDS011;12268;52.110;5.548;2023-05-10T07:25:44;57.55;;;21.55;;
24084;SDS011;12268;52.110;5.548;2023-05-10T07:28:10;51.92;;;21.08;;
24084;SDS011;12268;52.110;5.548;2023-05-10T07:30:36;46.72;;;18.27;;
24084;SDS011;12268;52.110;5.548;2023-05-10T07:33:01;47.35;;;18.25;;
24084;SDS011;12268;52.110;5.548;2023-05-10T07:35:27;40.55;;;17.17;;
24084;SDS011;12268;52.110;5.548;2023-05-10T07:37:52;42.08;;;17.13;;
24084;SDS011;12268;52.110;5.548;2023-05-10T07:40:18;38.25;;;16.08;;
24084;SDS011;12268;52.110;5.548;2023-05-10T07:42:43;39.40;;;15.75;;
24084;SDS011;12268;52.110;5.548;2023-05-10T07:45:09;38.15;;;16.60;;
24084;SDS011;12268;52.110;5.548;2023-05-10T07:47:35;33.95;;;15.55;;
24084;SDS011;12268;52.110;5.548;2023-05-10T07:50:00;35.47;;;15.60;;
24084;SDS011;12268;52.110;5.548;2023-05-10T07:52:26;33.45;;;14.05;;
24084;SDS011;12268;52.110;5.548;2023-05-10T07:54:52;31.17;;;12.73;;
24084;SDS011;12268;52.110;5.548;2023-05-10T07:57:18;29.38;;;14.23;;
24084;SDS011;12268;52.110;5.548;2023-05-10T07:59:43;32.05;;;12.45;;
24084;SDS011;12268;52.110;5.548;2023-05-10T08:02:10;24.98;;;12.48;;
24084;SDS011;12268;52.110;5.548;2023-05-10T08:04:35;30.10;;;12.65;;
24084;SDS011;12268;52.110;5.548;2023-05-10T08:07:01;26.98;;;13.00;;
24084;SDS011;12268;52.110;5.548;2023-05-10T08:09:26;27.15;;;13.75;;
24084;SDS011;12268;52.110;5.548;2023-05-10T08:11:52;27.52;;;12.98;;
24084;SDS011;12268;52.110;5.548;2023-05-10T08:14:17;28.08;;;12.70;;
24084;SDS011;12268;52.110;5.548;2023-05-10T08:16:43;28.48;;;15.13;;
24084;SDS011;12268;52.110;5.548;2023-05-10T08:19:08;31.52;;;14.80;;
24084;SDS011;12268;52.110;5.548;2023-05-10T08:21:34;29.80;;;15.00;;
24084;SDS011;12268;52.110;5.548;2023-05-10T08:24:00;29.25;;;14.68;;
24084;SDS011;12268;52.110;5.548;2023-05-10T08:26:26;26.45;;;13.98;;
24084;SDS011;12268;52.110;5.548;2023-05-10T08:28:51;30.67;;;13.93;;
24084;SDS011;12268;52.110;5.548;2023-05-10T08:31:17;22.13;;;12.55;;
24084;SDS011;12268;52.110;5.548;2023-05-10T08:33:43;22.58;;;12.27;;
24084;SDS011;12268;52.110;5.548;2023-05-10T08:36:08;22.63;;;12.85;;
24084;SDS011;12268;52.110;5.548;2023-05-10T08:38:34;27.65;;;11.38;;
24084;SDS011;12268;52.110;5.548;2023-05-10T08:41:00;22.92;;;11.73;;
24084;SDS011;12268;52.110;5.548;2023-05-10T08:43:27;22.30;;;12.05;;
24084;SDS011;12268;52.110;5.548;2023-05-10T08:45:54;21.42;;;11.85;;
24084;SDS011;12268;52.110;5.548;2023-05-10T08:48:22;22.88;;;12.35;;
24084;SDS011;12268;52.110;5.548;2023-05-10T08:50:49;22.98;;;12.32;;
24084;SDS011;12268;52.110;5.548;2023-05-10T08:53:18;22.92;;;12.80;;
24084;SDS011;12268;52.110;5.548;2023-05-10T08:55:44;22.33;;;12.23;;
24084;SDS011;12268;52.110;5.548;2023-05-10T08:58:11;24.27;;;12.93;;
24084;SDS011;12268;52.110;5.548;2023-05-10T09:00:36;24.02;;;12.32;;
24084;SDS011;12268;52.110;5.548;2023-05-10T09:03:04;29.15;;;13.75;;
24084;SDS011;12268;52.110;5.548;2023-05-10T09:05:31;25.90;;;13.57;;
24084;SDS011;12268;52.110;5.548;2023-05-10T09:07:57;27.95;;;14.95;;
24084;SDS011;12268;52.110;5.548;2023-05-10T09:10:23;27.38;;;14.13;;
24084;SDS011;12268;52.110;5.548;2023-05-10T09:12:52;27.70;;;13.93;;
24084;SDS011;12268;52.110;5.548;2023-05-10T09:15:20;26.20;;;14.07;;
24084;SDS011;12268;52.110;5.548;2023-05-10T09:17:46;25.85;;;14.70;;
24084;SDS011;12268;52.110;5.548;2023-05-10T09:20:13;31.17;;;15.80;;
24084;SDS011;12268;52.110;5.548;2023-05-10T09:22:39;23.85;;;14.10;;
24084;SDS011;12268;52.110;5.548;2023-05-10T09:25:09;27.55;;;15.52;;
24084;SDS011;12268;52.110;5.548;2023-05-10T09:27:36;30.15;;;15.40;;
24084;SDS011;12268;52.110;5.548;2023-05-10T09:30:04;27.77;;;14.75;;
24084;SDS011;12268;52.110;5.548;2023-05-10T09:32:37;28.42;;;14.80;;
24084;SDS011;12268;52.110;5.548;2023-05-10T09:35:10;24.83;;;14.60;;
24084;SDS011;12268;52.110;5.548;2023-05-10T09:37:41;25.08;;;14.75;;
24084;SDS011;12268;52.110;5.548;2023-05-10T09:40:11;21.55;;;13.52;;
24084;SDS011;12268;52.110;5.548;2023-05-10T09:42:38;23.65;;;12.50;;
24084;SDS011;12268;52.110;5.548;2023-05-10T09:45:05;18.77;;;11.70;;
24084;SDS011;12268;52.110;5.548;2023-05-10T09:47:32;17.77;;;10.95;;
24084;SDS011;12268;52.110;5.548;2023-05-10T09:49:59;18.70;;;11.00;;
24084;SDS011;12268;52.110;5.548;2023-05-10T09:52:45;18.50;;;11.82;;
24084;SDS011;12268;52.110;5.548;2023-05-10T09:55:20;19.90;;;12.02;;
24084;SDS011;12268;52.110;5.548;2023-05-10T09:57:47;20.55;;;12.35;;
24084;SDS011;12268;52.110;5.548;2023-05-10T10:00:17;19.38;;;11.50;;
24084;SDS011;12268;52.110;5.548;2023-05-10T10:02:44;19.83;;;9.68;;
24084;SDS011;12268;52.110;5.548;2023-05-10T10:05:19;11.85;;;7.38;;
24084;SDS011;12268;52.110;5.548;2023-05-10T10:07:44;13.95;;;8.60;;
24084;SDS011;12268;52.110;5.548;2023-05-10T10:10:10;14.00;;;8.57;;
24084;SDS011;12268;52.110;5.548;2023-05-10T10:12:38;12.85;;;7.97;;
24084;SDS011;12268;52.110;5.548;2023-05-10T10:15:05;13.70;;;7.53;;
24084;SDS011;12268;52.110;5.548;2023-05-10T10:17:32;11.35;;;7.55;;
24084;SDS011;12268;52.110;5.548;2023-05-10T10:20:00;12.30;;;6.97;;
24084;SDS011;12268;52.110;5.548;2023-05-10T10:22:27;14.23;;;7.35;;
24084;SDS011;12268;52.110;5.548;2023-05-10T10:24:52;13.68;;;7.05;;
24084;SDS011;12268;52.110;5.548;2023-05-10T10:27:22;15.18;;;7.22;;
24084;SDS011;12268;52.110;5.548;2023-05-10T10:30:13;12.52;;;7.30;;
24084;SDS011;12268;52.110;5.548;2023-05-10T10:35:28;12.63;;;8.18;;
24084;SDS011;12268;52.110;5.548;2023-05-10T10:37:55;12.65;;;8.20;;
24084;SDS011;12268;52.110;5.548;2023-05-10T10:42:53;16.10;;;8.60;;
24084;SDS011;12268;52.110;5.548;2023-05-10T10:45:20;14.93;;;8.52;;
24084;SDS011;12268;52.110;5.548;2023-05-10T10:47:46;14.13;;;8.63;;
24084;SDS011;12268;52.110;5.548;2023-05-10T10:50:12;14.57;;;8.10;;
24084;SDS011;12268;52.110;5.548;2023-05-10T10:52:38;14.20;;;9.15;;
24084;SDS011;12268;52.110;5.548;2023-05-10T10:57:51;13.80;;;8.63;;
24084;SDS011;12268;52.110;5.548;2023-05-10T11:03:08;13.98;;;8.82;;
24084;SDS011;12268;52.110;5.548;2023-05-10T11:05:46;15.23;;;8.60;;
24084;SDS011;12268;52.110;5.548;2023-05-10T11:08:16;14.52;;;8.63;;
24084;SDS011;12268;52.110;5.548;2023-05-10T11:13:34;16.50;;;9.70;;
24084;SDS011;12268;52.110;5.548;2023-05-10T11:16:19;14.27;;;8.50;;
24084;SDS011;12268;52.110;5.548;2023-05-10T11:18:57;14.93;;;9.07;;
24084;SDS011;12268;52.110;5.548;2023-05-10T11:21:31;15.98;;;9.65;;
24084;SDS011;12268;52.110;5.548;2023-05-10T11:23:58;16.73;;;9.27;;
24084;SDS011;12268;52.110;5.548;2023-05-10T11:26:29;14.60;;;8.95;;
24084;SDS011;12268;52.110;5.548;2023-05-10T11:28:57;14.77;;;9.50;;
24084;SDS011;12268;52.110;5.548;2023-05-10T11:31:24;14.18;;;8.32;;
24084;SDS011;12268;52.110;5.548;2023-05-10T11:33:55;13.02;;;8.25;;
24084;SDS011;12268;52.110;5.548;2023-05-10T11:36:23;14.80;;;8.10;;
24084;SDS011;12268;52.110;5.548;2023-05-10T11:38:51;11.18;;;7.65;;
24084;SDS011;12268;52.110;5.548;2023-05-10T11:41:17;15.18;;;7.95;;
24084;SDS011;12268;52.110;5.548;2023-05-10T11:43:45;11.82;;;7.57;;
24084;SDS011;12268;52.110;5.548;2023-05-10T11:46:13;16.10;;;8.27;;
24084;SDS011;12268;52.110;5.548;2023-05-10T11:48:39;13.77;;;7.43;;
24084;SDS011;12268;52.110;5.548;2023-05-10T11:51:06;11.07;;;7.25;;
24084;SDS011;12268;52.110;5.548;2023-05-10T11:53:32;10.85;;;6.85;;
24084;SDS011;12268;52.110;5.548;2023-05-10T11:56:05;13.25;;;7.65;;
24084;SDS011;12268;52.110;5.548;2023-05-10T11:58:32;13.85;;;7.57;;
24084;SDS011;12268;52.110;5.548;2023-05-10T12:01:01;13.02;;;7.57;;
24084;SDS011;12268;52.110;5.548;2023-05-10T12:03:28;11.25;;;7.25;;
24084;SDS011;12268;52.110;5.548;2023-05-10T12:05:55;14.27;;;7.65;;
24084;SDS011;12268;52.110;5.548;2023-05-10T12:08:22;13.95;;;7.88;;
24084;SDS011;12268;52.110;5.548;2023-05-10T12:10:50;13.77;;;8.38;;
24084;SDS011;12268;52.110;5.548;2023-05-10T12:13:16;13.35;;;8.00;;
24084;SDS011;12268;52.110;5.548;2023-05-10T12:15:43;12.50;;;7.40;;
24084;SDS011;12268;52.110;5.548;2023-05-10T12:18:09;12.35;;;7.18;;
24084;SDS011;12268;52.110;5.548;2023-05-10T12:20:36;12.85;;;7.60;;
24084;SDS011;12268;52.110;5.548;2023-05-10T12:23:02;11.05;;;7.10;;
24084;SDS011;12268;52.110;5.548;2023-05-10T12:25:32;13.45;;;6.40;;
24084;SDS011;12268;52.110;5.548;2023-05-10T12:28:00;10.13;;;6.75;;
24084;SDS011;12268;52.110;5.548;2023-05-10T12:30:29;10.25;;;6.97;;
24084;SDS011;12268;52.110;5.548;2023-05-10T12:33:00;10.60;;;6.95;;
24084;SDS011;12268;52.110;5.548;2023-05-10T12:35:46;11.07;;;6.63;;
24084;SDS011;12268;52.110;5.548;2023-05-10T12:40:54;11.05;;;6.78;;
24084;SDS011;12268;52.110;5.548;2023-05-10T12:43:26;10.60;;;6.07;;
24084;SDS011;12268;52.110;5.548;2023-05-10T12:45:52;8.10;;;5.53;;
24084;SDS011;12268;52.110;5.548;2023-05-10T12:48:18;8.57;;;5.63;;
24084;SDS011;12268;52.110;5.548;2023-05-10T12:50:44;10.30;;;6.10;;
24084;SDS011;12268;52.110;5.548;2023-05-10T12:53:09;11.05;;;5.50;;
24084;SDS011;12268;52.110;5.548;2023-05-10T12:55:35;9.77;;;6.25;;
24084;SDS011;12268;52.110;5.548;2023-05-10T12:58:00;8.85;;;6.20;;
24084;SDS011;12268;52.110;5.548;2023-05-10T13:00:26;9.45;;;5.32;;
24084;SDS011;12268;52.110;5.548;2023-05-10T13:02:51;12.57;;;5.65;;
24084;SDS011;12268;52.110;5.548;2023-05-10T13:05:18;8.35;;;5.25;;
24084;SDS011;12268;52.110;5.548;2023-05-10T13:07:43;9.45;;;5.28;;
24084;SDS011;12268;52.110;5.548;2023-05-10T13:10:09;9.95;;;4.93;;
24084;SDS011;12268;52.110;5.548;2023-05-10T13:12:35;7.80;;;5.20;;
24084;SDS011;12268;52.110;5.548;2023-05-10T13:15:01;5.78;;;3.90;;
24084;SDS011;12268;52.110;5.548;2023-05-10T13:17:28;6.53;;;3.75;;
24084;SDS011;12268;52.110;5.548;2023-05-10T13:19:53;6.40;;;3.45;;
24084;SDS011;12268;52.110;5.548;2023-05-10T13:22:19;7.82;;;4.18;;
24084;SDS011;12268;52.110;5.548;2023-05-10T13:24:44;7.10;;;4.65;;
24084;SDS011;12268;52.110;5.548;2023-05-10T13:27:10;6.30;;;4.25;;
24084;SDS011;12268;52.110;5.548;2023-05-10T13:29:36;6.28;;;4.32;;
24084;SDS011;12268;52.110;5.548;2023-05-10T13:32:01;9.10;;;4.70;;
24084;SDS011;12268;52.110;5.548;2023-05-10T13:34:27;9.55;;;5.20;;
24084;SDS011;12268;52.110;5.548;2023-05-10T13:36:53;10.50;;;7.22;;
24084;SDS011;12268;52.110;5.548;2023-05-10T13:39:19;12.70;;;6.55;;
24084;SDS011;12268;52.110;5.548;2023-05-10T13:41:45;10.35;;;7.18;;
24084;SDS011;12268;52.110;5.548;2023-05-10T13:44:12;11.68;;;6.32;;
24084;SDS011;12268;52.110;5.548;2023-05-10T13:46:39;11.23;;;6.38;;
24084;SDS011;12268;52.110;5.548;2023-05-10T13:49:04;10.30;;;5.07;;
24084;SDS011;12268;52.110;5.548;2023-05-10T13:51:30;11.55;;;5.32;;
24084;SDS011;12268;52.110;5.548;2023-05-10T13:53:56;11.43;;;5.50;;
24084;SDS011;12268;52.110;5.548;2023-05-10T13:56:22;14.23;;;6.18;;
24084;SDS011;12268;52.110;5.548;2023-05-10T13:58:48;14.23;;;6.57;;
24084;SDS011;12268;52.110;5.548;2023-05-10T14:01:13;16.35;;;6.25;;
24084;SDS011;12268;52.110;5.548;2023-05-10T14:03:39;12.75;;;6.07;;
24084;SDS011;12268;52.110;5.548;2023-05-10T14:06:05;13.02;;;6.25;;
24084;SDS011;12268;52.110;5.548;2023-05-10T14:08:32;11.10;;;5.88;;
24084;SDS011;12268;52.110;5.548;2023-05-10T14:10:57;12.02;;;5.80;;
24084;SDS011;12268;52.110;5.548;2023-05-10T14:13:23;12.32;;;5.68;;
24084;SDS011;12268;52.110;5.548;2023-05-10T14:15:49;11.50;;;6.05;;
24084;SDS011;12268;52.110;5.548;2023-05-10T14:18:15;13.25;;;6.50;;
24084;SDS011;12268;52.110;5.548;2023-05-10T14:20:41;12.57;;;6.20;;
24084;SDS011;12268;52.110;5.548;2023-05-10T14:23:06;12.15;;;6.20;;
24084;SDS011;12268;52.110;5.548;2023-05-10T14:25:32;14.25;;;6.28;;
24084;SDS011;12268;52.110;5.548;2023-05-10T14:27:58;10.70;;;6.15;;
24084;SDS011;12268;52.110;5.548;2023-05-10T14:30:23;13.20;;;5.97;;
24084;SDS011;12268;52.110;5.548;2023-05-10T14:32:49;10.30;;;5.90;;
24084;SDS011;12268;52.110;5.548;2023-05-10T14:35:15;13.20;;;6.55;;
24084;SDS011;12268;52.110;5.548;2023-05-10T14:37:40;17.08;;;6.80;;
24084;SDS011;12268;52.110;5.548;2023-05-10T14:40:06;10.60;;;5.63;;
24084;SDS011;12268;52.110;5.548;2023-05-10T14:42:32;13.15;;;6.40;;
24084;SDS011;12268;52.110;5.548;2023-05-10T14:44:57;13.50;;;6.28;;
24084;SDS011;12268;52.110;5.548;2023-05-10T14:47:23;14.57;;;6.20;;
24084;SDS011;12268;52.110;5.548;2023-05-10T14:49:48;15.88;;;6.57;;
24084;SDS011;12268;52.110;5.548;2023-05-10T14:52:14;12.75;;;6.45;;
24084;SDS011;12268;52.110;5.548;2023-05-10T14:54:40;11.18;;;6.18;;
24084;SDS011;12268;52.110;5.548;2023-05-10T14:57:06;11.80;;;6.30;;
24084;SDS011;12268;52.110;5.548;2023-05-10T14:59:31;14.55;;;6.40;;
24084;SDS011;12268;52.110;5.548;2023-05-10T15:01:57;12.63;;;5.65;;
24084;SDS011;12268;52.110;5.548;2023-05-10T15:04:23;15.55;;;6.60;;
24084;SDS011;12268;52.110;5.548;2023-05-10T15:06:49;13.40;;;6.80;;
24084;SDS011;12268;52.110;5.548;2023-05-10T15:09:14;15.48;;;7.75;;
24084;SDS011;12268;52.110;5.548;2023-05-10T15:11:41;15.77;;;7.78;;
24084;SDS011;12268;52.110;5.548;2023-05-10T15:14:07;17.42;;;8.07;;
24084;SDS011;12268;52.110;5.548;2023-05-10T15:16:32;15.35;;;7.40;;
24084;SDS011;12268;52.110;5.548;2023-05-10T15:18:58;16.85;;;7.82;;
24084;SDS011;12268;52.110;5.548;2023-05-10T15:21:23;15.18;;;7.95;;
24084;SDS011;12268;52.110;5.548;2023-05-10T15:23:49;16.35;;;8.32;;
24084;SDS011;12268;52.110;5.548;2023-05-10T15:26:14;16.42;;;8.07;;
24084;SDS011;12268;52.110;5.548;2023-05-10T15:28:40;16.90;;;8.60;;
24084;SDS011;12268;52.110;5.548;2023-05-10T15:31:05;21.13;;;8.93;;
24084;SDS011;12268;52.110;5.548;2023-05-10T15:33:31;13.13;;;8.32;;
24084;SDS011;12268;52.110;5.548;2023-05-10T15:35:56;19.25;;;9.73;;
24084;SDS011;12268;52.110;5.548;2023-05-10T15:38:22;18.40;;;9.82;;
24084;SDS011;12268;52.110;5.548;2023-05-10T15:40:47;14.85;;;8.85;;
24084;SDS011;12268;52.110;5.548;2023-05-10T15:43:13;16.27;;;9.23;;
24084;SDS011;12268;52.110;5.548;2023-05-10T15:45:39;18.15;;;9.20;;
24084;SDS011;12268;52.110;5.548;2023-05-10T15:48:04;21.15;;;10.05;;
24084;SDS011;12268;52.110;5.548;2023-05-10T15:50:30;15.02;;;9.38;;
24084;SDS011;12268;52.110;5.548;2023-05-10T15:52:55;18.52;;;9.90;;
24084;SDS011;12268;52.110;5.548;2023-05-10T15:55:21;18.30;;;9.55;;
24084;SDS011;12268;52.110;5.548;2023-05-10T15:57:46;17.40;;;10.50;;
24084;SDS011;12268;52.110;5.548;2023-05-10T16:00:12;20.55;;;10.48;;
24084;SDS011;12268;52.110;5.548;2023-05-10T16:02:39;20.42;;;9.27;;
24084;SDS011;12268;52.110;5.548;2023-05-10T16:05:05;17.95;;;9.73;;
24084;SDS011;12268;52.110;5.548;2023-05-10T16:07:30;17.85;;;9.10;;
24084;SDS011;12268;52.110;5.548;2023-05-10T16:09:56;20.63;;;9.15;;
24084;SDS011;12268;52.110;5.548;2023-05-10T16:12:22;16.02;;;9.40;;
24084;SDS011;12268;52.110;5.548;2023-05-10T16:14:47;19.67;;;10.32;;
24084;SDS011;12268;52.110;5.548;2023-05-10T16:17:13;16.80;;;10.55;;
24084;SDS011;12268;52.110;5.548;2023-05-10T16:19:41;20.20;;;10.50;;
24084;SDS011;12268;52.110;5.548;2023-05-10T16:22:07;17.45;;;9.27;;
24084;SDS011;12268;52.110;5.548;2023-05-10T16:24:32;16.85;;;9.88;;
24084;SDS011;12268;52.110;5.548;2023-05-10T16:26:58;16.60;;;10.48;;
24084;SDS011;12268;52.110;5.548;2023-05-10T16:29:23;19.10;;;9.93;;
24084;SDS011;12268;52.110;5.548;2023-05-10T16:31:49;16.52;;;9.15;;
24084;SDS011;12268;52.110;5.548;2023-05-10T16:34:14;19.08;;;9.20;;
24084;SDS011;12268;52.110;5.548;2023-05-10T16:36:40;17.23;;;9.23;;
24084;SDS011;12268;52.110;5.548;2023-05-10T16:39:05;12.98;;;8.70;;
24084;SDS011;12268;52.110;5.548;2023-05-10T16:41:33;14.70;;;8.93;;
24084;SDS011;12268;52.110;5.548;2023-05-10T16:43:59;17.90;;;10.00;;
24084;SDS011;12268;52.110;5.548;2023-05-10T16:46:25;14.95;;;9.13;;
24084;SDS011;12268;52.110;5.548;2023-05-10T16:48:50;12.85;;;8.60;;
24084;SDS011;12268;52.110;5.548;2023-05-10T16:51:16;14.63;;;8.77;;
24084;SDS011;12268;52.110;5.548;2023-05-10T16:53:41;15.07;;;9.25;;
24084;SDS011;12268;52.110;5.548;2023-05-10T16:56:07;14.77;;;9.13;;
24084;SDS011;12268;52.110;5.548;2023-05-10T16:58:34;15.60;;;8.68;;
24084;SDS011;12268;52.110;5.548;2023-05-10T17:01:00;16.75;;;10.05;;
24084;SDS011;12268;52.110;5.548;2023-05-10T17:03:25;13.70;;;8.90;;
24084;SDS011;12268;52.110;5.548;2023-05-10T17:05:51;16.27;;;9.80;;
24084;SDS011;12268;52.110;5.548;2023-05-10T17:08:16;14.18;;;8.85;;
24084;SDS011;12268;52.110;5.548;2023-05-10T17:10:42;17.52;;;10.13;;
24084;SDS011;12268;52.110;5.548;2023-05-10T17:13:07;19.00;;;9.93;;
24084;SDS011;12268;52.110;5.548;2023-05-10T17:15:34;16.20;;;9.25;;
24084;SDS011;12268;52.110;5.548;2023-05-10T17:18:01;17.27;;;9.50;;
24084;SDS011;12268;52.110;5.548;2023-05-10T17:20:27;18.60;;;9.82;;
24084;SDS011;12268;52.110;5.548;2023-05-10T17:22:53;14.88;;;8.70;;
24084;SDS011;12268;52.110;5.548;2023-05-10T17:25:18;16.17;;;8.35;;
24084;SDS011;12268;52.110;5.548;2023-05-10T17:27:44;17.02;;;9.50;;
24084;SDS011;12268;52.110;5.548;2023-05-10T17:30:10;16.67;;;8.73;;
24084;SDS011;12268;52.110;5.548;2023-05-10T17:32:36;14.80;;;8.85;;
24084;SDS011;12268;52.110;5.548;2023-05-10T17:35:02;16.08;;;9.52;;
24084;SDS011;12268;52.110;5.548;2023-05-10T17:37:29;16.63;;;9.02;;
24084;SDS011;12268;52.110;5.548;2023-05-10T17:39:56;14.77;;;8.73;;
24084;SDS011;12268;52.110;5.548;2023-05-10T17:42:23;19.45;;;9.88;;
24084;SDS011;12268;52.110;5.548;2023-05-10T17:44:49;15.70;;;9.05;;
24084;SDS011;12268;52.110;5.548;2023-05-10T17:47:14;18.42;;;9.50;;
24084;SDS011;12268;52.110;5.548;2023-05-10T17:49:40;15.63;;;8.63;;
24084;SDS011;12268;52.110;5.548;2023-05-10T17:52:05;14.55;;;8.65;;
24084;SDS011;12268;52.110;5.548;2023-05-10T17:54:31;17.33;;;8.77;;
24084;SDS011;12268;52.110;5.548;2023-05-10T17:56:56;19.77;;;9.63;;
24084;SDS011;12268;52.110;5.548;2023-05-10T17:59:23;20.35;;;9.93;;
24084;SDS011;12268;52.110;5.548;2023-05-10T18:01:48;18.67;;;9.73;;
24084;SDS011;12268;52.110;5.548;2023-05-10T18:04:14;21.55;;;10.60;;
24084;SDS011;12268;52.110;5.548;2023-05-10T18:06:39;23.05;;;10.35;;
24084;SDS011;12268;52.110;5.548;2023-05-10T18:09:05;20.27;;;10.38;;
24084;SDS011;12268;52.110;5.548;2023-05-10T18:11:31;22.02;;;11.32;;
24084;SDS011;12268;52.110;5.548;2023-05-10T18:13:58;23.30;;;11.40;;
24084;SDS011;12268;52.110;5.548;2023-05-10T18:16:24;22.10;;;10.93;;
24084;SDS011;12268;52.110;5.548;2023-05-10T18:18:50;19.75;;;10.63;;
24084;SDS011;12268;52.110;5.548;2023-05-10T18:21:15;26.17;;;11.18;;
24084;SDS011;12268;52.110;5.548;2023-05-10T18:23:41;19.77;;;10.73;;
24084;SDS011;12268;52.110;5.548;2023-05-10T18:26:07;23.23;;;11.50;;
24084;SDS011;12268;52.110;5.548;2023-05-10T18:28:33;23.15;;;12.02;;
24084;SDS011;12268;52.110;5.548;2023-05-10T18:30:58;20.52;;;11.32;;
24084;SDS011;12268;52.110;5.548;2023-05-10T18:33:24;26.23;;;12.25;;
24084;SDS011;12268;52.110;5.548;2023-05-10T18:35:49;21.75;;;11.65;;
24084;SDS011;12268;52.110;5.548;2023-05-10T18:38:15;24.13;;;12.43;;
24084;SDS011;12268;52.110;5.548;2023-05-10T18:40:41;20.50;;;12.13;;
24084;SDS011;12268;52.110;5.548;2023-05-10T18:43:06;20.88;;;12.00;;
24084;SDS011;12268;52.110;5.548;2023-05-10T18:45:32;28.30;;;13.50;;
24084;SDS011;12268;52.110;5.548;2023-05-10T18:47:58;25.05;;;14.77;;
24084;SDS011;12268;52.110;5.548;2023-05-10T18:50:24;26.48;;;14.40;;
24084;SDS011;12268;52.110;5.548;2023-05-10T18:52:50;30.08;;;16.35;;
24084;SDS011;12268;52.110;5.548;2023-05-10T18:55:15;29.63;;;15.88;;
24084;SDS011;12268;52.110;5.548;2023-05-10T18:57:41;31.38;;;18.73;;
24084;SDS011;12268;52.110;5.548;2023-05-10T19:00:07;33.22;;;16.52;;
24084;SDS011;12268;52.110;5.548;2023-05-10T19:02:38;28.98;;;14.57;;
24084;SDS011;12268;52.110;5.548;2023-05-10T19:05:04;30.50;;;14.60;;
24084;SDS011;12268;52.110;5.548;2023-05-10T19:07:30;33.67;;;15.90;;
24084;SDS011;12268;52.110;5.548;2023-05-10T19:09:55;30.40;;;16.25;;
24084;SDS011;12268;52.110;5.548;2023-05-10T19:12:21;31.38;;;16.25;;
24084;SDS011;12268;52.110;5.548;2023-05-10T19:14:46;30.10;;;15.05;;
24084;SDS011;12268;52.110;5.548;2023-05-10T19:17:12;28.45;;;15.68;;
24084;SDS011;12268;52.110;5.548;2023-05-10T19:19:37;28.88;;;15.88;;
24084;SDS011;12268;52.110;5.548;2023-05-10T19:22:03;33.83;;;15.38;;
24084;SDS011;12268;52.110;5.548;2023-05-10T19:24:29;37.60;;;19.67;;
24084;SDS011;12268;52.110;5.548;2023-05-10T19:26:54;39.42;;;18.98;;
24084;SDS011;12268;52.110;5.548;2023-05-10T19:29:21;39.70;;;20.05;;
24084;SDS011;12268;52.110;5.548;2023-05-10T19:31:47;35.70;;;20.55;;
24084;SDS011;12268;52.110;5.548;2023-05-10T19:34:13;41.50;;;19.73;;
24084;SDS011;12268;52.110;5.548;2023-05-10T19:36:39;35.92;;;19.33;;
24084;SDS011;12268;52.110;5.548;2023-05-10T19:39:04;36.80;;;18.25;;
24084;SDS011;12268;52.110;5.548;2023-05-10T19:41:30;34.58;;;18.13;;
24084;SDS011;12268;52.110;5.548;2023-05-10T19:43:55;29.73;;;16.42;;
24084;SDS011;12268;52.110;5.548;2023-05-10T19:46:21;32.13;;;15.30;;
24084;SDS011;12268;52.110;5.548;2023-05-10T19:48:46;34.35;;;16.55;;
24084;SDS011;12268;52.110;5.548;2023-05-10T19:51:12;29.98;;;16.42;;
24084;SDS011;12268;52.110;5.548;2023-05-10T19:53:37;27.63;;;14.85;;
24084;SDS011;12268;52.110;5.548;2023-05-10T19:56:07;32.72;;;16.55;;
24084;SDS011;12268;52.110;5.548;2023-05-10T19:58:33;36.20;;;17.67;;
24084;SDS011;12268;52.110;5.548;2023-05-10T20:00:59;44.78;;;24.23;;
24084;SDS011;12268;52.110;5.548;2023-05-10T20:03:25;42.03;;;22.73;;
24084;SDS011;12268;52.110;5.548;2023-05-10T20:05:51;40.30;;;21.20;;
24084;SDS011;12268;52.110;5.548;2023-05-10T20:08:17;41.35;;;20.27;;
24084;SDS011;12268;52.110;5.548;2023-05-10T20:10:42;39.00;;;21.85;;
24084;SDS011;12268;52.110;5.548;2023-05-10T20:13:08;36.85;;;21.23;;
24084;SDS011;12268;52.110;5.548;2023-05-10T20:15:33;35.03;;;19.20;;
24084;SDS011;12268;52.110;5.548;2023-05-10T20:17:59;37.20;;;18.63;;
24084;SDS011;12268;52.110;5.548;2023-05-10T20:20:25;41.50;;;18.92;;
24084;SDS011;12268;52.110;5.548;2023-05-10T20:22:50;37.95;;;18.48;;
24084;SDS011;12268;52.110;5.548;2023-05-10T20:25:16;28.10;;;16.05;;